Time;durP1;ratioP1;P1;durP2;ratioP2;P2;SDS_P1;SDS_P2;PMS_P1;PMS_P2;Temp;Humidity;BMP_temperature;BMP_pressure;BME280_temperature;BME280_humidity;BME280_pressure;Samples;Min_cycle;Max_cycle;Signal;HPM_P1;HPM_P2
2022/07/24 00:01:50;;;;;;;56.75;39.65;;;;;;;;;;4862963;29;20528;-80
2022/07/24 00:04:16;;;;;;;64.45;39.60;;;;;;;;;;4894512;29;20041;-78
2022/07/24 00:06:42;;;;;;;57.08;39.17;;;;;;;;;;4866259;29;20471;-79
2022/07/24 00:09:08;;;;;;;56.38;36.53;;;;;;;;;;4879394;29;20076;-79
2022/07/24 00:11:33;;;;;;;57.17;37.70;;;;;;;;;;4878908;29;20064;-80
2022/07/24 00:14:00;;;;;;;50.10;35.75;;;;;;;;;;4878880;29;20056;-79
2022/07/24 00:16:25;;;;;;;44.42;34.45;;;;;;;;;;4878672;29;20045;-80
2022/07/24 00:18:51;;;;;;;38.95;31.05;;;;;;;;;;4878900;29;20048;-79
2022/07/24 00:21:17;;;;;;;44.40;30.30;;;;;;;;;;4892234;29;20081;-78
2022/07/24 00:23:43;;;;;;;41.88;29.63;;;;;;;;;;4878971;29;20129;-79
2022/07/24 00:26:10;;;;;;;46.05;29.63;;;;;;;;;;4878160;29;20061;-78
2022/07/24 00:28:35;;;;;;;37.13;28.08;;;;;;;;;;4878526;29;20041;-79
2022/07/24 00:31:01;;;;;;;34.33;27.77;;;;;;;;;;4877071;29;20480;-78
2022/07/24 00:33:27;;;;;;;42.30;27.70;;;;;;;;;;4878064;29;20033;-79
2022/07/24 00:35:53;;;;;;;43.63;30.38;;;;;;;;;;4877080;29;20060;-79
2022/07/24 00:38:19;;;;;;;42.40;31.23;;;;;;;;;;4878310;29;20060;-78
2022/07/24 00:40:45;;;;;;;45.30;31.48;;;;;;;;;;4861777;29;20072;-79
2022/07/24 00:43:12;;;;;;;37.42;26.38;;;;;;;;;;4878254;29;20399;-79
2022/07/24 00:45:38;;;;;;;38.72;26.55;;;;;;;;;;4878375;29;20049;-79
2022/07/24 00:48:04;;;;;;;42.50;24.33;;;;;;;;;;4877642;29;20100;-79
2022/07/24 00:50:30;;;;;;;39.95;24.80;;;;;;;;;;4878547;29;20049;-80
2022/07/24 00:52:56;;;;;;;32.85;22.88;;;;;;;;;;4877967;29;20033;-79
2022/07/24 00:55:22;;;;;;;38.10;22.50;;;;;;;;;;4876740;29;20052;-79
2022/07/24 00:57:49;;;;;;;31.70;23.45;;;;;;;;;;4877665;29;20041;-79
2022/07/24 01:00:15;;;;;;;26.90;22.38;;;;;;;;;;4878285;29;20156;-79
2022/07/24 01:02:41;;;;;;;32.83;23.60;;;;;;;;;;4861259;29;20522;-79
2022/07/24 01:05:10;;;;;;;32.30;26.17;;;;;;;;;;4860766;29;20458;-79
2022/07/24 01:07:36;;;;;;;36.40;27.40;;;;;;;;;;4878048;29;20132;-79
2022/07/24 01:10:02;;;;;;;33.35;23.23;;;;;;;;;;4877996;29;20090;-79
2022/07/24 01:12:29;;;;;;;42.67;24.92;;;;;;;;;;4861577;29;20136;-80
2022/07/24 01:14:54;;;;;;;40.55;31.25;;;;;;;;;;4861147;29;20051;-79
2022/07/24 01:17:20;;;;;;;36.38;20.55;;;;;;;;;;4877434;29;20053;-80
2022/07/24 01:19:46;;;;;;;29.60;20.63;;;;;;;;;;4877926;29;20056;-80
2022/07/24 01:22:12;;;;;;;42.22;22.90;;;;;;;;;;4860607;29;20037;-79
2022/07/24 01:24:38;;;;;;;36.53;27.40;;;;;;;;;;4861259;29;20060;-79
2022/07/24 01:27:04;;;;;;;37.20;27.13;;;;;;;;;;4877755;29;20040;-79
2022/07/24 01:29:30;;;;;;;31.95;27.52;;;;;;;;;;4877863;29;20110;-79
2022/07/24 01:31:56;;;;;;;34.40;27.25;;;;;;;;;;4885292;29;20056;-78
2022/07/24 01:34:22;;;;;;;37.70;26.10;;;;;;;;;;4891332;29;20045;-79
2022/07/24 01:36:48;;;;;;;37.35;27.13;;;;;;;;;;4890795;29;20049;-79
2022/07/24 01:39:14;;;;;;;29.20;20.73;;;;;;;;;;4861712;29;20051;-79
2022/07/24 01:41:40;;;;;;;34.63;21.55;;;;;;;;;;4877855;29;20048;-78
2022/07/24 01:44:06;;;;;;;29.05;20.20;;;;;;;;;;4877537;29;20429;-79
2022/07/24 01:46:32;;;;;;;27.27;19.77;;;;;;;;;;4876934;29;20041;-78
2022/07/24 01:48:58;;;;;;;27.60;19.48;;;;;;;;;;4877279;29;20045;-79
2022/07/24 01:51:23;;;;;;;31.88;19.63;;;;;;;;;;4876035;29;20080;-79
2022/07/24 01:53:49;;;;;;;28.15;19.73;;;;;;;;;;4884543;29;20056;-78
2022/07/24 01:56:15;;;;;;;30.60;18.45;;;;;;;;;;4885309;29;20049;-79
2022/07/24 01:58:41;;;;;;;22.00;19.00;;;;;;;;;;4881405;29;20470;-78
2022/07/24 02:01:07;;;;;;;27.08;18.73;;;;;;;;;;4890408;29;20060;-79
2022/07/24 02:03:33;;;;;;;28.80;20.23;;;;;;;;;;4877213;29;20051;-79
2022/07/24 02:05:59;;;;;;;24.90;18.77;;;;;;;;;;4875780;29;20061;-80
2022/07/24 02:08:25;;;;;;;26.48;19.48;;;;;;;;;;4860315;29;20181;-79
2022/07/24 02:10:51;;;;;;;25.27;20.58;;;;;;;;;;4877173;29;20118;-80
2022/07/24 02:13:17;;;;;;;27.85;19.42;;;;;;;;;;4877705;29;20582;-80
2022/07/24 02:15:43;;;;;;;29.73;19.63;;;;;;;;;;4862813;29;20052;-79
2022/07/24 02:18:09;;;;;;;18.05;16.15;;;;;;;;;;4877814;29;20123;-81
2022/07/24 02:20:35;;;;;;;26.35;18.30;;;;;;;;;;4877842;29;20561;-79
2022/07/24 02:23:00;;;;;;;21.60;18.55;;;;;;;;;;4876895;29;20045;-77
2022/07/24 02:25:26;;;;;;;21.00;18.73;;;;;;;;;;4877018;29;20123;-81
2022/07/24 02:27:52;;;;;;;32.92;20.58;;;;;;;;;;4877088;29;20052;-79
2022/07/24 02:30:20;;;;;;;30.45;19.65;;;;;;;;;;4876995;29;20083;-78
2022/07/24 02:32:46;;;;;;;22.50;18.10;;;;;;;;;;4860471;29;20048;-79
2022/07/24 02:35:12;;;;;;;20.80;18.90;;;;;;;;;;4876673;29;20426;-79
2022/07/24 02:37:38;;;;;;;36.28;26.92;;;;;;;;;;4876568;29;20121;-79
2022/07/24 02:40:04;;;;;;;34.70;27.27;;;;;;;;;;4876308;29;20065;-79
2022/07/24 02:42:30;;;;;;;29.92;24.02;;;;;;;;;;4876420;29;20073;-79
2022/07/24 02:44:57;;;;;;;33.13;22.92;;;;;;;;;;4860137;29;20057;-80
2022/07/24 02:47:22;;;;;;;27.35;22.77;;;;;;;;;;4859923;29;20041;-79
2022/07/24 02:49:48;;;;;;;24.08;21.25;;;;;;;;;;4860360;29;20060;-80
2022/07/24 02:52:14;;;;;;;35.83;29.17;;;;;;;;;;4876559;29;20033;-78
2022/07/24 02:54:40;;;;;;;36.42;28.10;;;;;;;;;;4876649;29;20060;-76
2022/07/24 02:57:06;;;;;;;32.10;26.55;;;;;;;;;;4877371;29;20116;-79
2022/07/24 02:59:32;;;;;;;39.83;28.02;;;;;;;;;;4879692;29;20135;-79
2022/07/24 03:01:58;;;;;;;41.00;27.35;;;;;;;;;;4879659;29;20045;-79
2022/07/24 03:04:24;;;;;;;34.80;27.17;;;;;;;;;;4879855;29;20040;-79
2022/07/24 03:06:50;;;;;;;34.35;26.58;;;;;;;;;;4880274;29;20137;-80
2022/07/24 03:09:16;;;;;;;33.10;24.75;;;;;;;;;;4878681;29;20081;-79
2022/07/24 03:11:42;;;;;;;34.63;24.65;;;;;;;;;;4863140;29;20053;-78
2022/07/24 03:14:07;;;;;;;39.20;23.88;;;;;;;;;;4879663;29;20127;-79
2022/07/24 03:16:33;;;;;;;35.03;24.45;;;;;;;;;;4880077;29;20049;-79
2022/07/24 03:18:59;;;;;;;36.20;24.85;;;;;;;;;;4879468;29;20097;-78
2022/07/24 03:21:26;;;;;;;28.65;22.55;;;;;;;;;;4862718;29;20057;-78
2022/07/24 03:23:51;;;;;;;30.77;21.70;;;;;;;;;;4879738;29;20041;-80
2022/07/24 03:26:17;;;;;;;31.48;19.45;;;;;;;;;;4879520;29;20123;-79
2022/07/24 03:28:43;;;;;;;32.20;20.42;;;;;;;;;;4879652;29;20041;-77
2022/07/24 03:31:09;;;;;;;40.10;22.08;;;;;;;;;;4862617;29;20052;-81
2022/07/24 03:33:35;;;;;;;23.60;18.00;;;;;;;;;;4879788;29;20040;-79
2022/07/24 03:36:01;;;;;;;23.13;15.48;;;;;;;;;;4879556;29;20434;-80
2022/07/24 03:38:27;;;;;;;24.92;20.23;;;;;;;;;;4881419;29;20041;-80
2022/07/24 03:40:53;;;;;;;35.28;20.02;;;;;;;;;;4873592;29;20045;-78
2022/07/24 03:43:19;;;;;;;27.48;20.58;;;;;;;;;;4862521;29;20498;-79
2022/07/24 03:45:44;;;;;;;29.73;21.13;;;;;;;;;;4871379;29;20048;-79
2022/07/24 03:48:10;;;;;;;22.98;15.98;;;;;;;;;;4872937;29;20138;-79
2022/07/24 03:50:36;;;;;;;26.25;17.42;;;;;;;;;;4879727;29;20047;-79
2022/07/24 03:53:02;;;;;;;29.70;20.08;;;;;;;;;;4878875;29;20037;-79
2022/07/24 03:55:28;;;;;;;28.55;20.55;;;;;;;;;;4879165;29;20059;-80
2022/07/24 03:57:54;;;;;;;33.28;19.65;;;;;;;;;;4879020;29;20041;-79
2022/07/24 04:00:19;;;;;;;26.95;17.50;;;;;;;;;;4878701;29;20186;-79
2022/07/24 04:02:45;;;;;;;33.13;18.92;;;;;;;;;;4878596;29;20517;-80
2022/07/24 04:05:13;;;;;;;28.60;18.00;;;;;;;;;;4878497;29;20057;-79
2022/07/24 04:07:39;;;;;;;18.25;16.05;;;;;;;;;;4878606;29;20049;-78
2022/07/24 04:10:05;;;;;;;32.70;15.88;;;;;;;;;;4877418;29;20548;-78
2022/07/24 04:12:31;;;;;;;17.42;15.43;;;;;;;;;;4861887;29;20108;-78
2022/07/24 04:14:57;;;;;;;25.25;17.25;;;;;;;;;;4879004;29;20625;-77
2022/07/24 04:17:23;;;;;;;21.77;17.58;;;;;;;;;;4861387;29;20425;-78
2022/07/24 04:19:48;;;;;;;32.20;16.95;;;;;;;;;;4878408;29;20525;-78
2022/07/24 04:22:14;;;;;;;22.63;17.77;;;;;;;;;;4877900;29;20053;-78
2022/07/24 04:24:40;;;;;;;26.05;17.48;;;;;;;;;;4878309;29;20049;-77
2022/07/24 04:27:06;;;;;;;24.10;16.75;;;;;;;;;;4876998;29;20868;-78
2022/07/24 04:29:32;;;;;;;23.77;16.67;;;;;;;;;;4887924;29;20068;-78
2022/07/24 04:31:58;;;;;;;24.20;16.52;;;;;;;;;;4875220;29;20044;-78
2022/07/24 04:34:25;;;;;;;23.20;16.42;;;;;;;;;;4881556;29;20518;-78
2022/07/24 04:36:50;;;;;;;21.23;15.88;;;;;;;;;;4877518;29;20052;-77
2022/07/24 04:39:16;;;;;;;16.58;12.90;;;;;;;;;;4860498;29;20045;-78
2022/07/24 04:41:42;;;;;;;17.75;13.32;;;;;;;;;;4860640;29;20701;-77
2022/07/24 04:44:08;;;;;;;18.50;15.48;;;;;;;;;;4876927;29;20048;-79
2022/07/24 04:46:34;;;;;;;20.17;14.13;;;;;;;;;;4860539;29;20486;-77
2022/07/24 04:49:00;;;;;;;23.75;15.73;;;;;;;;;;4876968;29;20040;-79
2022/07/24 04:51:26;;;;;;;24.08;15.05;;;;;;;;;;4877133;29;20048;-79
2022/07/24 04:53:54;;;;;;;19.75;15.10;;;;;;;;;;4877091;29;20127;-78
2022/07/24 04:56:20;;;;;;;17.05;14.95;;;;;;;;;;4876748;29;20033;-79
2022/07/24 04:58:47;;;;;;;21.17;13.82;;;;;;;;;;4877078;29;20045;-79
2022/07/24 05:01:13;;;;;;;13.20;11.98;;;;;;;;;;4876706;29;20057;-79
2022/07/24 05:03:39;;;;;;;17.23;12.85;;;;;;;;;;4876750;29;20063;-78
2022/07/24 05:06:05;;;;;;;17.75;13.15;;;;;;;;;;4860003;29;20120;-77
2022/07/24 05:08:31;;;;;;;18.50;12.45;;;;;;;;;;4876677;29;20131;-78
2022/07/24 05:10:57;;;;;;;17.75;12.32;;;;;;;;;;4876871;29;20461;-77
2022/07/24 05:13:22;;;;;;;16.65;11.50;;;;;;;;;;4876263;29;20116;-78
2022/07/24 05:15:48;;;;;;;14.75;11.07;;;;;;;;;;4876660;29;20399;-78
2022/07/24 05:18:15;;;;;;;18.33;15.25;;;;;;;;;;4877030;29;20115;-78
2022/07/24 05:20:40;;;;;;;15.40;10.88;;;;;;;;;;4881087;29;20064;-77
2022/07/24 05:23:06;;;;;;;14.35;10.10;;;;;;;;;;4874969;29;20048;-77
2022/07/24 05:25:32;;;;;;;18.58;10.45;;;;;;;;;;4876557;29;20055;-78
2022/07/24 05:27:58;;;;;;;13.18;8.80;;;;;;;;;;4876679;29;20469;-77
2022/07/24 05:30:24;;;;;;;8.85;7.68;;;;;;;;;;4876097;29;20045;-77
2022/07/24 05:32:50;;;;;;;10.15;8.23;;;;;;;;;;4876433;29;20100;-78
2022/07/24 05:35:16;;;;;;;9.02;8.02;;;;;;;;;;4876787;29;20068;-79
2022/07/24 05:37:42;;;;;;;14.43;7.70;;;;;;;;;;4889591;29;20060;-76
2022/07/24 05:40:08;;;;;;;9.10;7.38;;;;;;;;;;4882649;29;20057;-80
2022/07/24 05:42:34;;;;;;;11.50;8.20;;;;;;;;;;4859738;29;20414;-80
2022/07/24 05:45:00;;;;;;;10.98;7.78;;;;;;;;;;4875146;29;20522;-80
2022/07/24 05:47:25;;;;;;;13.05;7.03;;;;;;;;;;4875813;29;20041;-80
2022/07/24 05:49:51;;;;;;;7.90;6.50;;;;;;;;;;4876242;29;20064;-80
2022/07/24 05:52:17;;;;;;;6.38;5.75;;;;;;;;;;4875776;29;20044;-80
2022/07/24 05:54:43;;;;;;;7.00;6.30;;;;;;;;;;4876145;29;20068;-79
2022/07/24 05:57:09;;;;;;;6.03;5.53;;;;;;;;;;4875690;29;20082;-80
2022/07/24 05:59:35;;;;;;;7.70;5.90;;;;;;;;;;4876050;29;20096;-79
2022/07/24 06:02:03;;;;;;;6.68;5.35;;;;;;;;;;4876211;29;20044;-80
2022/07/24 06:04:30;;;;;;;5.53;5.07;;;;;;;;;;4859420;29;20060;-79
2022/07/24 06:06:56;;;;;;;6.25;5.38;;;;;;;;;;4874658;29;20041;-80
2022/07/24 06:09:22;;;;;;;8.57;6.20;;;;;;;;;;4875952;29;20429;-81
2022/07/24 06:11:48;;;;;;;6.95;6.35;;;;;;;;;;4876012;29;20101;-80
2022/07/24 06:14:14;;;;;;;9.32;5.45;;;;;;;;;;4875824;29;20044;-80
2022/07/24 06:16:40;;;;;;;6.10;5.60;;;;;;;;;;4875970;29;20132;-80
2022/07/24 06:19:06;;;;;;;8.43;4.75;;;;;;;;;;4875447;29;20057;-81
2022/07/24 06:21:32;;;;;;;6.38;4.55;;;;;;;;;;4843414;29;20083;-80
2022/07/24 06:23:58;;;;;;;6.97;5.63;;;;;;;;;;4859233;29;20176;-80
2022/07/24 06:26:24;;;;;;;6.22;4.90;;;;;;;;;;4875789;29;20168;-81
2022/07/24 06:28:50;;;;;;;9.13;5.07;;;;;;;;;;4859179;29;20088;-79
2022/07/24 06:31:15;;;;;;;6.40;4.72;;;;;;;;;;4875510;29;20055;-78
2022/07/24 06:33:41;;;;;;;5.50;4.88;;;;;;;;;;4879378;29;20490;-76
2022/07/24 06:36:07;;;;;;;5.70;5.13;;;;;;;;;;4878269;29;20079;-79
2022/07/24 06:38:33;;;;;;;5.68;5.20;;;;;;;;;;4879676;29;20045;-80
2022/07/24 06:40:59;;;;;;;6.00;5.05;;;;;;;;;;4879533;29;20152;-78
2022/07/24 06:43:25;;;;;;;6.75;5.03;;;;;;;;;;4877675;29;20136;-77
2022/07/24 06:45:51;;;;;;;5.85;4.70;;;;;;;;;;4879464;29;20100;-78
2022/07/24 06:48:16;;;;;;;5.03;4.50;;;;;;;;;;4879078;29;20080;-79
2022/07/24 06:50:42;;;;;;;5.95;4.70;;;;;;;;;;4879375;29;20057;-79
2022/07/24 06:53:08;;;;;;;5.47;3.72;;;;;;;;;;4878839;29;20096;-80
2022/07/24 06:55:34;;;;;;;7.60;4.10;;;;;;;;;;4879194;29;20462;-76
2022/07/24 06:57:59;;;;;;;4.53;4.13;;;;;;;;;;4879416;29;20421;-79
2022/07/24 07:00:26;;;;;;;5.03;4.63;;;;;;;;;;4886423;29;20056;-79
2022/07/24 07:02:52;;;;;;;4.63;3.95;;;;;;;;;;4880163;29;20112;-79
2022/07/24 07:05:18;;;;;;;7.55;3.88;;;;;;;;;;4879027;29;20613;-79
2022/07/24 07:07:45;;;;;;;4.88;3.75;;;;;;;;;;4846744;29;20699;-79
2022/07/24 07:10:10;;;;;;;6.70;4.03;;;;;;;;;;4846701;29;20147;-78
2022/07/24 07:12:36;;;;;;;7.78;4.15;;;;;;;;;;4862375;29;20470;-80
2022/07/24 07:15:05;;;;;;;4.90;4.50;;;;;;;;;;4878837;29;20049;-78
2022/07/24 07:17:31;;;;;;;7.97;4.50;;;;;;;;;;4878622;29;20044;-79
2022/07/24 07:19:57;;;;;;;6.32;4.18;;;;;;;;;;4879030;29;20502;-78
2022/07/24 07:22:23;;;;;;;4.25;3.95;;;;;;;;;;4878496;29;20064;-79
2022/07/24 07:24:49;;;;;;;6.90;4.32;;;;;;;;;;4879483;29;20069;-80
2022/07/24 07:27:15;;;;;;;4.32;4.03;;;;;;;;;;4881134;29;20068;-80
2022/07/24 07:29:41;;;;;;;6.47;4.43;;;;;;;;;;4877143;29;20052;-77
2022/07/24 07:32:07;;;;;;;4.97;4.60;;;;;;;;;;4882735;29;20128;-79
2022/07/24 07:34:33;;;;;;;6.38;5.05;;;;;;;;;;4877552;29;20045;-79
2022/07/24 07:36:58;;;;;;;5.32;4.85;;;;;;;;;;4878869;29;20053;-79
2022/07/24 07:39:24;;;;;;;4.78;4.38;;;;;;;;;;4845656;29;20052;-79
2022/07/24 07:41:50;;;;;;;5.13;4.30;;;;;;;;;;4878549;29;20524;-78
2022/07/24 07:44:16;;;;;;;6.55;4.97;;;;;;;;;;4875520;29;20052;-79
2022/07/24 07:46:43;;;;;;;5.07;4.60;;;;;;;;;;4878492;29;20398;-79
2022/07/24 07:49:09;;;;;;;4.20;4.00;;;;;;;;;;4878307;29;20534;-80
2022/07/24 07:51:35;;;;;;;4.60;4.18;;;;;;;;;;4878016;29;20045;-78
2022/07/24 07:54:01;;;;;;;3.63;3.38;;;;;;;;;;4878357;29;20041;-80
2022/07/24 07:56:30;;;;;;;3.65;3.28;;;;;;;;;;4878043;29;20321;-79
2022/07/24 07:58:56;;;;;;;5.22;3.30;;;;;;;;;;4878431;29;20043;-79
2022/07/24 08:01:22;;;;;;;5.15;3.35;;;;;;;;;;4877829;29;20088;-78
2022/07/24 08:03:48;;;;;;;3.45;3.20;;;;;;;;;;4877976;29;20052;-79
2022/07/24 08:06:15;;;;;;;3.95;3.20;;;;;;;;;;4861606;29;20053;-80
2022/07/24 08:08:41;;;;;;;3.58;3.28;;;;;;;;;;4861075;29;20502;-80
2022/07/24 08:11:07;;;;;;;3.60;3.03;;;;;;;;;;4861321;29;20144;-79
2022/07/24 08:13:33;;;;;;;3.40;3.10;;;;;;;;;;4876053;29;20125;-79
2022/07/24 08:15:58;;;;;;;4.47;3.13;;;;;;;;;;4878080;29;20463;-79
2022/07/24 08:18:24;;;;;;;3.38;3.17;;;;;;;;;;4877623;29;20045;-77
2022/07/24 08:20:51;;;;;;;4.25;3.13;;;;;;;;;;4877645;29;20052;-81
2022/07/24 08:23:17;;;;;;;3.20;3.00;;;;;;;;;;4877382;29;20045;-81
2022/07/24 08:25:43;;;;;;;3.50;3.30;;;;;;;;;;4877578;29;20552;-79
2022/07/24 08:28:09;;;;;;;3.47;3.20;;;;;;;;;;4877495;29;20124;-79
2022/07/24 08:30:35;;;;;;;7.93;3.50;;;;;;;;;;4877312;29;20486;-79
2022/07/24 08:33:00;;;;;;;4.28;3.13;;;;;;;;;;4877670;29;20128;-79
2022/07/24 08:35:26;;;;;;;3.75;3.45;;;;;;;;;;4877334;29;20112;-79
2022/07/24 08:37:52;;;;;;;6.88;3.17;;;;;;;;;;4877176;29;20045;-79
2022/07/24 08:40:18;;;;;;;3.45;3.20;;;;;;;;;;4880614;29;20052;-78
2022/07/24 08:42:44;;;;;;;3.50;3.25;;;;;;;;;;4880629;29;20049;-80
2022/07/24 08:45:10;;;;;;;3.50;3.30;;;;;;;;;;4877526;29;20041;-79
2022/07/24 08:47:38;;;;;;;5.03;3.13;;;;;;;;;;4877101;29;20167;-79
2022/07/24 08:50:04;;;;;;;3.20;2.88;;;;;;;;;;4877148;29;20149;-79
2022/07/24 08:52:30;;;;;;;3.38;3.05;;;;;;;;;;4860366;29;20045;-80
2022/07/24 08:54:56;;;;;;;2.60;2.50;;;;;;;;;;4860052;29;20056;-78
2022/07/24 08:57:22;;;;;;;2.97;2.85;;;;;;;;;;4875570;29;20045;-79
2022/07/24 08:59:48;;;;;;;2.55;2.38;;;;;;;;;;4876577;29;20064;-79
2022/07/24 09:02:13;;;;;;;3.15;2.95;;;;;;;;;;4876993;29;20427;-79
2022/07/24 09:04:44;;;;;;;2.80;2.70;;;;;;;;;;4876313;29;20080;-80
2022/07/24 09:07:15;;;;;;;3.08;2.88;;;;;;;;;;4876992;29;20063;-78
2022/07/24 09:09:41;;;;;;;3.35;3.05;;;;;;;;;;4860018;29;20091;-78
2022/07/24 09:12:08;;;;;;;3.92;2.70;;;;;;;;;;4877109;29;20045;-81
2022/07/24 09:14:35;;;;;;;2.88;2.67;;;;;;;;;;4876538;29;20076;-79
2022/07/24 09:17:11;;;;;;;2.88;2.70;;;;;;;;;;4877163;29;20033;-80
2022/07/24 09:19:46;;;;;;;3.50;3.20;;;;;;;;;;4865219;29;20503;-78
2022/07/24 09:22:27;;;;;;;3.08;2.70;;;;;;;;;;4873306;29;20060;-80
2022/07/24 09:25:06;;;;;;;3.20;2.90;;;;;;;;;;4877052;29;20045;-80
2022/07/24 09:27:35;;;;;;;3.58;3.38;;;;;;;;;;4875676;29;20463;-80
2022/07/24 09:30:02;;;;;;;4.10;3.00;;;;;;;;;;4876663;29;20135;-79
2022/07/24 09:32:28;;;;;;;3.25;3.05;;;;;;;;;;4876493;29;20056;-80
2022/07/24 09:34:54;;;;;;;3.53;2.88;;;;;;;;;;4876677;29;20045;-81
2022/07/24 09:37:20;;;;;;;3.38;3.17;;;;;;;;;;4876436;29;20136;-81
2022/07/24 09:39:46;;;;;;;9.38;3.90;;;;;;;;;;4876229;29;20522;-80
2022/07/24 09:42:12;;;;;;;5.90;4.07;;;;;;;;;;4859997;29;20048;-81
2022/07/24 09:44:38;;;;;;;4.53;4.22;;;;;;;;;;4876600;29;20037;-81
2022/07/24 09:47:08;;;;;;;4.60;4.20;;;;;;;;;;4876689;29;20049;-80
2022/07/24 09:49:34;;;;;;;5.03;3.80;;;;;;;;;;4859421;29;20545;-81
2022/07/24 09:52:10;;;;;;;4.72;4.30;;;;;;;;;;4875086;29;20044;-81
2022/07/24 09:54:40;;;;;;;4.50;4.10;;;;;;;;;;4859606;29;20736;-82
2022/07/24 09:57:15;;;;;;;4.45;4.15;;;;;;;;;;4875258;29;20124;-80
2022/07/24 09:59:42;;;;;;;4.90;4.40;;;;;;;;;;4876063;29;20072;-80
2022/07/24 10:02:07;;;;;;;4.53;4.18;;;;;;;;;;4876419;29;20056;-81
2022/07/24 10:04:34;;;;;;;4.50;4.10;;;;;;;;;;4875773;29;20057;-79
2022/07/24 10:07:00;;;;;;;4.43;4.10;;;;;;;;;;4875648;29;20045;-80
2022/07/24 10:09:26;;;;;;;4.15;3.95;;;;;;;;;;4875933;29;20037;-80
2022/07/24 10:11:52;;;;;;;6.10;3.95;;;;;;;;;;4859742;29;20045;-80
2022/07/24 10:14:18;;;;;;;4.78;4.00;;;;;;;;;;4859505;29;20540;-80
2022/07/24 10:16:44;;;;;;;4.15;3.85;;;;;;;;;;4876355;29;20475;-81
2022/07/24 10:19:10;;;;;;;5.60;3.90;;;;;;;;;;4859468;29;20052;-80
2022/07/24 10:21:36;;;;;;;6.50;3.90;;;;;;;;;;4866882;29;20064;-81
2022/07/24 10:24:11;;;;;;;4.22;3.92;;;;;;;;;;4879316;29;20033;-79
2022/07/24 10:26:40;;;;;;;8.60;3.90;;;;;;;;;;4860529;29;20049;-79
2022/07/24 10:29:10;;;;;;;5.40;3.90;;;;;;;;;;4883351;29;20037;-80
2022/07/24 10:31:36;;;;;;;7.50;4.70;;;;;;;;;;4871762;29;20487;-80
2022/07/24 10:34:03;;;;;;;4.40;2.95;;;;;;;;;;4867695;29;20139;-79
2022/07/24 10:36:30;;;;;;;4.18;3.53;;;;;;;;;;4860100;29;20049;-82
2022/07/24 10:39:00;;;;;;;3.15;2.92;;;;;;;;;;4860097;29;20045;-81
2022/07/24 10:41:26;;;;;;;3.47;3.13;;;;;;;;;;4859263;29;20064;-81
2022/07/24 10:44:12;;;;;;;4.38;3.22;;;;;;;;;;4876312;29;20052;-81
2022/07/24 10:46:58;;;;;;;4.05;3.30;;;;;;;;;;4876071;29;20053;-81
2022/07/24 10:49:33;;;;;;;3.25;3.05;;;;;;;;;;4875769;29;20029;-81
2022/07/24 10:52:00;;;;;;;3.33;3.13;;;;;;;;;;4876115;29;20056;-81
2022/07/24 10:54:26;;;;;;;3.22;3.03;;;;;;;;;;4875448;29;20064;-81
2022/07/24 10:56:51;;;;;;;5.28;3.10;;;;;;;;;;4875855;29;20510;-82
2022/07/24 10:59:31;;;;;;;2.97;2.83;;;;;;;;;;4875687;29;20202;-80
2022/07/24 11:01:57;;;;;;;3.30;3.10;;;;;;;;;;4859584;29;20064;-82
2022/07/24 11:04:23;;;;;;;5.53;3.15;;;;;;;;;;4858878;29;20151;-80
2022/07/24 11:06:49;;;;;;;7.90;3.63;;;;;;;;;;4859486;29;20057;-81
2022/07/24 11:09:15;;;;;;;3.53;3.20;;;;;;;;;;4876396;29;20418;-81
2022/07/24 11:11:42;;;;;;;3.70;3.17;;;;;;;;;;4864729;29;20053;-81
2022/07/24 11:14:08;;;;;;;4.72;3.20;;;;;;;;;;4864518;29;20077;-80
2022/07/24 11:16:34;;;;;;;7.47;3.20;;;;;;;;;;4860530;29;20041;-80
2022/07/24 11:19:00;;;;;;;5.45;3.35;;;;;;;;;;4878205;29;20045;-81
2022/07/24 11:21:27;;;;;;;5.05;3.30;;;;;;;;;;4879383;29;20065;-80
2022/07/24 11:24:11;;;;;;;3.15;2.95;;;;;;;;;;4878889;29;20109;-80
2022/07/24 11:26:40;;;;;;;3.25;3.05;;;;;;;;;;4878820;29;20056;-81
2022/07/24 11:29:12;;;;;;;3.33;3.00;;;;;;;;;;4879057;29;20430;-80
2022/07/24 11:31:38;;;;;;;4.05;2.80;;;;;;;;;;4878565;29;20438;-81
2022/07/24 11:34:04;;;;;;;3.22;3.03;;;;;;;;;;4877452;29;20033;-82
2022/07/24 11:36:30;;;;;;;3.22;3.03;;;;;;;;;;4878530;29;20088;-81
2022/07/24 11:38:56;;;;;;;3.78;3.17;;;;;;;;;;4878668;29;20043;-82
2022/07/24 11:41:22;;;;;;;3.10;2.90;;;;;;;;;;4878971;29;20143;-81
2022/07/24 11:43:51;;;;;;;6.72;2.90;;;;;;;;;;4878830;29;20536;-81
2022/07/24 11:46:38;;;;;;;6.53;2.80;;;;;;;;;;4879277;29;20080;-82
2022/07/24 11:49:05;;;;;;;3.35;3.13;;;;;;;;;;4878006;29;20041;-82
2022/07/24 11:51:31;;;;;;;4.50;3.00;;;;;;;;;;4879104;29;20053;-82
2022/07/24 11:53:57;;;;;;;3.58;3.33;;;;;;;;;;4877784;29;20484;-81
2022/07/24 11:56:23;;;;;;;3.40;3.10;;;;;;;;;;4862466;29;20121;-80
2022/07/24 11:58:49;;;;;;;3.55;3.15;;;;;;;;;;4877689;29;20068;-82
2022/07/24 12:01:22;;;;;;;3.22;3.03;;;;;;;;;;4884094;29;20061;-83
2022/07/24 12:03:52;;;;;;;3.30;3.17;;;;;;;;;;4885354;29;20080;-80
2022/07/24 12:06:18;;;;;;;3.70;3.40;;;;;;;;;;4879602;29;20052;-82
2022/07/24 12:08:44;;;;;;;4.75;3.00;;;;;;;;;;4878789;29;20060;-80
2022/07/24 12:11:10;;;;;;;3.35;3.20;;;;;;;;;;4877949;29;20051;-81
2022/07/24 12:13:46;;;;;;;6.97;3.13;;;;;;;;;;4878971;29;20045;-82
2022/07/24 12:16:14;;;;;;;3.15;2.95;;;;;;;;;;4878562;29;20056;-80
2022/07/24 12:18:40;;;;;;;3.47;3.15;;;;;;;;;;4877958;29;20124;-82
2022/07/24 12:21:05;;;;;;;3.90;3.50;;;;;;;;;;4878465;29;20172;-80
2022/07/24 12:23:31;;;;;;;4.97;3.28;;;;;;;;;;4861484;29;20109;-81
2022/07/24 12:25:57;;;;;;;3.28;3.08;;;;;;;;;;4878231;29;20076;-82
2022/07/24 12:28:23;;;;;;;4.82;3.05;;;;;;;;;;4861342;29;20434;-81
2022/07/24 12:30:49;;;;;;;8.05;3.75;;;;;;;;;;4877119;29;20514;-81
2022/07/24 12:33:17;;;;;;;4.40;4.10;;;;;;;;;;4877941;29;20048;-80
2022/07/24 12:35:56;;;;;;;8.73;3.97;;;;;;;;;;4845548;29;20045;-79
2022/07/24 12:38:22;;;;;;;;;;;;;;;;;;4878434;29;20577;-80
2022/07/24 12:40:48;;;;;;;4.22;3.92;;;;;;;;;;4877603;29;19923;-81
2022/07/24 12:43:14;;;;;;;4.00;3.80;;;;;;;;;;4878261;29;20052;-81
2022/07/24 12:45:40;;;;;;;4.68;4.13;;;;;;;;;;4877518;29;20502;-82
2022/07/24 12:48:18;;;;;;;4.25;3.60;;;;;;;;;;4877851;29;20056;-81
2022/07/24 12:51:00;;;;;;;3.80;3.60;;;;;;;;;;4877107;29;20045;-80
2022/07/24 12:53:28;;;;;;;3.47;3.17;;;;;;;;;;4877715;29;20076;-80
2022/07/24 12:56:07;;;;;;;3.20;3.00;;;;;;;;;;4878098;29;20064;-81
2022/07/24 12:58:49;;;;;;;4.63;3.08;;;;;;;;;;4878308;29;20524;-81
2022/07/24 13:01:15;;;;;;;3.28;3.08;;;;;;;;;;4846744;29;20080;-81
2022/07/24 13:03:42;;;;;;;4.47;3.28;;;;;;;;;;4880387;29;20049;-81
2022/07/24 13:06:09;;;;;;;3.88;3.25;;;;;;;;;;4880019;29;20407;-82
2022/07/24 13:08:34;;;;;;;4.15;3.85;;;;;;;;;;4878302;29;20072;-82
2022/07/24 13:11:00;;;;;;;4.00;3.50;;;;;;;;;;4861219;29;20052;-81
2022/07/24 13:13:26;;;;;;;4.85;3.50;;;;;;;;;;4860822;29;20140;-81
2022/07/24 13:15:52;;;;;;;4.72;3.53;;;;;;;;;;4877407;29;20068;-81
2022/07/24 13:18:18;;;;;;;5.80;3.63;;;;;;;;;;4877506;29;20498;-81
2022/07/24 13:20:44;;;;;;;7.15;4.85;;;;;;;;;;4876907;29;20067;-82
2022/07/24 13:23:10;;;;;;;4.22;4.03;;;;;;;;;;4877570;29;20045;-81
2022/07/24 13:25:36;;;;;;;4.40;4.10;;;;;;;;;;4877406;29;20568;-79
2022/07/24 13:28:02;;;;;;;4.20;4.00;;;;;;;;;;4878272;29;20040;-81
2022/07/24 13:30:28;;;;;;;4.22;3.80;;;;;;;;;;4861773;29;20128;-80
2022/07/24 13:32:53;;;;;;;3.80;3.58;;;;;;;;;;4883405;29;20048;-80
2022/07/24 13:35:19;;;;;;;4.75;3.50;;;;;;;;;;4886648;29;20076;-81
2022/07/24 13:37:45;;;;;;;4.07;3.28;;;;;;;;;;4887659;29;20045;-80
2022/07/24 13:40:12;;;;;;;4.10;3.40;;;;;;;;;;4864664;29;20418;-84
2022/07/24 13:42:38;;;;;;;6.38;2.90;;;;;;;;;;4873526;29;20041;-81
2022/07/24 13:45:04;;;;;;;4.55;3.47;;;;;;;;;;4861893;29;20048;-81
2022/07/24 13:47:30;;;;;;;4.18;3.45;;;;;;;;;;4877207;29;20051;-81
2022/07/24 13:49:56;;;;;;;3.65;3.45;;;;;;;;;;4860110;29;20045;-81
2022/07/24 13:52:21;;;;;;;3.22;3.03;;;;;;;;;;4860504;29;20040;-81
2022/07/24 13:54:47;;;;;;;3.40;3.20;;;;;;;;;;4876186;29;20526;-80
2022/07/24 13:57:13;;;;;;;3.83;3.53;;;;;;;;;;4876688;29;20079;-80
2022/07/24 13:59:39;;;;;;;4.00;3.28;;;;;;;;;;4876168;29;20124;-80
2022/07/24 14:02:05;;;;;;;4.63;3.42;;;;;;;;;;4876736;29;20074;-81
2022/07/24 14:04:31;;;;;;;3.65;3.35;;;;;;;;;;4876501;29;20072;-81
2022/07/24 14:06:57;;;;;;;3.53;3.30;;;;;;;;;;4876696;29;20072;-81
2022/07/24 14:09:23;;;;;;;3.88;3.55;;;;;;;;;;4875530;29;20080;-80
2022/07/24 14:11:49;;;;;;;5.85;3.20;;;;;;;;;;4876701;29;20077;-80
2022/07/24 14:14:15;;;;;;;5.43;3.17;;;;;;;;;;4860203;29;20041;-80
2022/07/24 14:16:41;;;;;;;4.63;3.58;;;;;;;;;;4876904;29;20580;-81
2022/07/24 14:19:07;;;;;;;4.18;3.88;;;;;;;;;;4860192;29;20085;-80
2022/07/24 14:21:37;;;;;;;3.50;3.30;;;;;;;;;;4876580;29;20053;-81
2022/07/24 14:24:03;;;;;;;3.80;3.42;;;;;;;;;;4876908;29;20125;-80
2022/07/24 14:26:29;;;;;;;4.20;3.90;;;;;;;;;;4876770;29;20144;-81
2022/07/24 14:28:55;;;;;;;5.45;3.72;;;;;;;;;;4876419;29;20124;-80
2022/07/24 14:31:21;;;;;;;4.63;3.80;;;;;;;;;;4877174;29;20510;-82